createdAt,value
2023-03-25T00:01:58.238Z,2.37
2023-03-25T00:07:03.160Z,2.70
2023-03-25T00:12:06.936Z,2.10
2023-03-25T00:17:10.522Z,2.90
2023-03-25T00:22:15.732Z,2.00
2023-03-25T00:27:19.142Z,2.33
2023-03-25T00:32:22.286Z,2.10
2023-03-25T00:37:27.318Z,2.30
2023-03-25T00:42:30.637Z,2.07
2023-03-25T00:47:33.931Z,2.30
2023-03-25T00:52:38.590Z,2.47
2023-03-25T00:57:41.961Z,2.33
2023-03-25T01:02:45.813Z,2.57
2023-03-25T01:07:53.049Z,2.37
2023-03-25T01:12:56.600Z,2.47
2023-03-25T01:18:00.356Z,2.57
2023-03-25T01:23:04.757Z,2.63
2023-03-25T01:28:08.034Z,1.70
2023-03-25T01:33:11.766Z,2.00
2023-03-25T01:38:16.295Z,1.77
2023-03-25T01:43:20.014Z,2.43
2023-03-25T01:48:28.060Z,2.10
2023-03-25T01:53:33.954Z,2.30
2023-03-25T01:58:37.930Z,1.93
2023-03-25T02:03:45.989Z,2.03
2023-03-25T02:08:53.748Z,2.30
2023-03-25T02:13:58.974Z,1.73
2023-03-25T02:19:32.985Z,1.90
2023-03-25T02:25:09.956Z,2.13
2023-03-25T02:30:57.241Z,2.63
2023-03-25T02:36:57.680Z,2.03
2023-03-25T02:42:09.213Z,2.37
2023-03-25T02:47:19.009Z,1.90
2023-03-25T02:52:28.085Z,2.47
2023-03-25T02:57:36.109Z,2.17
2023-03-25T03:02:40.711Z,2.00
2023-03-25T03:07:49.134Z,2.60
2023-03-25T03:13:06.888Z,2.60
2023-03-25T03:18:20.047Z,2.93
2023-03-25T03:23:27.396Z,2.47
2023-03-25T03:28:40.796Z,3.20
2023-03-25T03:33:50.657Z,3.10
2023-03-25T03:38:59.559Z,3.40
2023-03-25T03:44:08.208Z,2.60
2023-03-25T03:49:17.322Z,2.73
2023-03-25T03:54:24.842Z,2.93
2023-03-25T03:59:37.460Z,2.60
2023-03-25T04:04:42.870Z,2.97
2023-03-25T04:09:56.699Z,2.90
2023-03-25T04:15:04.362Z,3.50
2023-03-25T04:20:11.681Z,2.33
2023-03-25T04:25:15.386Z,2.77
2023-03-25T04:30:19.862Z,2.60
2023-03-25T04:35:23.188Z,2.47
2023-03-25T04:40:27.019Z,2.80
2023-03-25T04:45:36.488Z,3.47
2023-03-25T04:50:43.545Z,3.53
2023-03-25T04:55:48.225Z,3.73
2023-03-25T05:00:54.049Z,2.67
2023-03-25T05:05:57.249Z,3.20
2023-03-25T05:11:00.355Z,2.77
2023-03-25T05:16:05.006Z,2.60
2023-03-25T05:21:09.031Z,2.93
2023-03-25T05:26:13.414Z,2.70
2023-03-25T05:31:18.601Z,2.07
2023-03-25T05:36:25.106Z,3.13
2023-03-25T05:41:33.221Z,2.87
2023-03-25T05:46:37.929Z,2.43
2023-03-25T05:51:42.174Z,2.40
2023-03-25T05:56:45.363Z,3.00
2023-03-25T06:01:57.557Z,2.40
2023-03-25T06:07:01.594Z,2.93
2023-03-25T06:12:05.670Z,2.63
2023-03-25T06:17:11.448Z,3.70
2023-03-25T06:22:14.600Z,2.70
2023-03-25T06:27:19.599Z,3.13
2023-03-25T06:32:26.048Z,3.70
2023-03-25T06:37:29.328Z,2.70
2023-03-25T06:42:33.480Z,3.00
2023-03-25T06:47:57.347Z,2.43
2023-03-25T06:53:00.640Z,3.00
2023-03-25T06:58:03.955Z,3.07
2023-03-25T07:03:08.779Z,3.40
2023-03-25T07:08:13.440Z,3.97
2023-03-25T07:13:16.510Z,5.00
2023-03-25T07:18:21.209Z,3.57
2023-03-25T07:23:24.371Z,2.83
2023-03-25T07:28:27.853Z,3.20
2023-03-25T07:33:32.461Z,4.00
2023-03-25T07:38:36.942Z,3.47
2023-03-25T07:43:40.531Z,3.20
2023-03-25T07:48:57.065Z,3.60
2023-03-25T07:54:05.020Z,3.00
2023-03-25T07:59:09.681Z,4.03
2023-03-25T08:04:14.669Z,3.37
2023-03-25T08:09:18.059Z,3.43
2023-03-25T08:14:21.123Z,3.03
2023-03-25T08:19:25.832Z,4.13
2023-03-25T08:24:30.456Z,3.20
2023-03-25T08:29:34.692Z,2.90
2023-03-25T08:34:40.273Z,5.97
2023-03-25T08:39:45.233Z,4.13
2023-03-25T08:44:50.870Z,3.47
2023-03-25T08:49:55.336Z,3.73
2023-03-25T08:54:58.738Z,3.40
2023-03-25T09:00:01.854Z,3.53
2023-03-25T09:05:07.103Z,4.00
2023-03-25T09:10:13.459Z,4.40
2023-03-25T09:15:16.599Z,4.90
2023-03-25T09:20:22.108Z,3.40
2023-03-25T09:25:25.911Z,3.90
2023-03-25T09:30:29.171Z,4.47
2023-03-25T09:35:33.917Z,5.97
2023-03-25T09:40:39.039Z,4.10
2023-03-25T09:45:44.913Z,3.27
2023-03-25T09:50:50.365Z,3.80
2023-03-25T09:55:54.380Z,3.63
2023-03-25T10:01:04.844Z,3.40
2023-03-25T10:06:19.744Z,4.10
2023-03-25T10:11:34.180Z,4.03
2023-03-25T10:16:51.550Z,4.10
2023-03-25T10:21:59.829Z,3.13
2023-03-25T10:27:06.890Z,2.97
2023-03-25T10:32:18.337Z,3.47
2023-03-25T10:37:29.000Z,3.63
2023-03-25T10:42:36.418Z,4.37
2023-03-25T10:47:42.149Z,3.50
2023-03-25T10:52:51.781Z,3.70
2023-03-25T10:57:56.948Z,3.67
2023-03-25T11:03:02.133Z,3.00
2023-03-25T11:08:18.504Z,2.70
2023-03-25T11:13:27.212Z,2.97
2023-03-25T11:18:34.233Z,3.63
2023-03-25T11:23:43.725Z,2.33
2023-03-25T11:28:49.129Z,3.60
2023-03-25T11:34:06.246Z,2.97
2023-03-25T11:39:18.421Z,3.10
2023-03-25T11:44:25.563Z,2.83
2023-03-25T11:49:35.558Z,3.80
2023-03-25T11:54:42.058Z,3.47
2023-03-25T11:59:47.324Z,3.87
2023-03-25T12:04:58.948Z,2.53
2023-03-25T12:10:07.154Z,3.23
2023-03-25T12:15:22.201Z,4.03
2023-03-25T12:20:31.835Z,3.30
2023-03-25T12:26:00.845Z,3.03
2023-03-25T12:31:16.593Z,2.10
2023-03-25T12:36:31.266Z,2.80
2023-03-25T12:41:42.004Z,3.23
2023-03-25T12:46:59.512Z,3.77
2023-03-25T12:52:11.161Z,2.77
2023-03-25T12:57:40.652Z,2.87
2023-03-25T13:03:12.677Z,2.90
2023-03-25T13:08:21.273Z,2.97
2023-03-25T13:13:30.061Z,3.03
2023-03-25T13:18:38.122Z,2.53
2023-03-25T13:23:43.884Z,3.83
2023-03-25T13:28:51.838Z,2.43
2023-03-25T13:34:08.296Z,2.37
2023-03-25T13:39:17.611Z,2.87
2023-03-25T13:44:28.333Z,2.70
2023-03-25T13:49:35.883Z,3.63
2023-03-25T13:54:42.831Z,3.10
2023-03-25T14:00:33.322Z,3.00
2023-03-25T14:06:07.899Z,2.93
2023-03-25T14:11:21.788Z,2.17
2023-03-25T14:16:27.746Z,2.57
2023-03-25T14:21:42.098Z,2.63
2023-03-25T14:26:52.280Z,2.93
2023-03-25T14:32:07.713Z,2.53
2023-03-25T14:37:18.663Z,3.30
2023-03-25T14:42:30.398Z,3.10
2023-03-25T14:47:36.426Z,2.87
2023-03-25T14:52:44.643Z,3.60
2023-03-25T14:57:52.376Z,2.87
2023-03-25T15:03:02.611Z,3.30
2023-03-25T15:08:19.083Z,3.77
2023-03-25T15:13:32.195Z,3.67
2023-03-25T15:19:14.863Z,2.90
2023-03-25T15:24:27.422Z,3.17
2023-03-25T15:30:04.190Z,2.80
2023-03-25T15:35:37.185Z,3.20
2023-03-25T15:40:56.063Z,2.97
2023-03-25T15:46:47.210Z,4.40
2023-03-25T15:52:20.797Z,4.97
2023-03-25T15:57:30.077Z,3.90
2023-03-25T16:02:37.203Z,4.43
2023-03-25T16:07:42.697Z,4.33
2023-03-25T16:12:50.963Z,4.43
2023-03-25T16:17:54.836Z,3.10
2023-03-25T16:23:00.936Z,3.87
2023-03-25T16:28:07.619Z,4.33
2023-03-25T16:33:20.774Z,4.10
2023-03-25T16:38:25.572Z,4.33
2023-03-25T16:43:31.688Z,4.23
2023-03-25T16:48:36.856Z,3.93
2023-03-25T16:53:41.125Z,3.93
2023-03-25T16:58:58.527Z,4.37
2023-03-25T17:04:14.946Z,4.60
2023-03-25T17:09:20.903Z,3.80
2023-03-25T17:14:30.857Z,4.30
2023-03-25T17:19:38.014Z,4.87
2023-03-25T17:24:42.987Z,4.93
2023-03-25T17:29:55.391Z,4.30
2023-03-25T17:35:04.211Z,4.20
2023-03-25T17:40:11.671Z,4.27
2023-03-25T17:45:19.183Z,4.73
2023-03-25T17:50:25.407Z,5.67
2023-03-25T17:55:28.472Z,4.80
2023-03-25T18:00:34.008Z,5.20
2023-03-25T18:05:51.014Z,5.63
2023-03-25T18:10:55.834Z,4.60
2023-03-25T18:16:00.538Z,4.97
2023-03-25T18:21:04.014Z,4.87
2023-03-25T18:26:13.000Z,4.90
2023-03-25T18:31:20.960Z,6.20
2023-03-25T18:36:24.213Z,6.83
2023-03-25T18:41:27.422Z,5.17
2023-03-25T18:46:31.937Z,5.20
2023-03-25T18:51:35.093Z,4.13
2023-03-25T18:56:38.332Z,5.47
2023-03-25T19:01:43.329Z,4.27
2023-03-25T19:06:46.625Z,3.90
2023-03-25T19:11:53.269Z,3.83
2023-03-25T19:17:04.004Z,3.23
2023-03-25T19:22:10.057Z,2.97
2023-03-25T19:27:13.210Z,3.07
2023-03-25T19:32:17.990Z,2.40
2023-03-25T19:37:21.175Z,2.23
2023-03-25T19:42:24.187Z,2.17
2023-03-25T19:47:28.901Z,2.43
2023-03-25T19:52:32.108Z,2.80
2023-03-25T19:57:35.182Z,3.47
2023-03-25T20:02:42.650Z,3.53
2023-03-25T20:07:47.594Z,4.07
2023-03-25T20:12:54.066Z,3.97
2023-03-25T20:17:58.802Z,4.23
2023-03-25T20:23:01.823Z,3.90
2023-03-25T20:28:04.904Z,4.37
2023-03-25T20:33:09.438Z,5.43
2023-03-25T20:38:14.327Z,4.80
2023-03-25T20:43:17.572Z,4.07
2023-03-25T20:48:22.161Z,5.23
2023-03-25T20:53:25.947Z,5.27
2023-03-25T20:58:30.301Z,5.27
2023-03-25T21:03:38.009Z,4.47
2023-03-25T21:08:41.415Z,5.03
2023-03-25T21:13:44.456Z,6.20
2023-03-25T21:18:52.964Z,4.43
2023-03-25T21:23:56.918Z,4.07
2023-03-25T21:29:00.663Z,3.83
2023-03-25T21:34:05.076Z,3.00
2023-03-25T21:39:08.577Z,2.87
2023-03-25T21:44:12.680Z,2.70
2023-03-25T21:49:17.225Z,2.60
2023-03-25T21:54:22.015Z,2.33
2023-03-25T21:59:25.097Z,2.33
2023-03-25T22:04:29.711Z,2.87
2023-03-25T22:09:32.791Z,2.90
2023-03-25T22:14:36.245Z,2.50
2023-03-25T22:19:41.126Z,2.53
2023-03-25T22:24:47.184Z,2.60
2023-03-25T22:29:50.630Z,3.57
2023-03-25T22:34:55.154Z,4.10
2023-03-25T22:39:58.297Z,3.57
2023-03-25T22:45:01.317Z,4.43
2023-03-25T22:50:06.847Z,4.33
2023-03-25T22:55:11.512Z,4.63
2023-03-25T23:00:15.817Z,4.53
2023-03-25T23:05:20.180Z,4.83
2023-03-25T23:10:23.220Z,6.53
2023-03-25T23:15:27.863Z,5.13
2023-03-25T23:20:32.305Z,5.83
2023-03-25T23:25:36.790Z,6.03
2023-03-25T23:30:40.201Z,6.73
2023-03-25T23:35:44.570Z,5.87
2023-03-25T23:40:54.936Z,7.03
2023-03-25T23:45:58.659Z,7.63
2023-03-25T23:51:03.267Z,7.40
2023-03-25T23:56:08.363Z,7.20
